Jacksonville, Missouri
Current Conditions -  °F | °C
As of 12:36 PM on Saturday 20 Dec 2014 (Local Time) from KIRK Reporting Station
Overcast Overcast  
Wind Chill:   Ceiling: 1600
Heat Index:   Visibility: 7mi
Dew Point:   Wind: 8mph
Humidity: 93%   Direction: 190°S
Pressure: 30.17"   Gusts: NA
Location:  39.59°N, 92.47°W
Report Text: KIRK 201836Z AUTO 19007KT 7SM SCT008 OVC016 03/02 A3017 RMK AO2 T00330022
Loading
Personal Weather Stations






























Interactive Weather Map New forecast layout! Learn more

10-Day Weather Forecast

Advertisements
Track Severe Weather on mobile